Time;durP1;ratioP1;P1;durP2;ratioP2;P2;SDS_P1;SDS_P2;PMS_P1;PMS_P2;Temp;Humidity;BMP_temperature;BMP_pressure;BME280_temperature;BME280_humidity;BME280_pressure;Samples;Min_cycle;Max_cycle;Signal;HPM_P1;HPM_P2
2023/08/24 00:00:47;;;;;;;5.28;2.45;;;18.10;99.90;;;;;;4999294;28;38568;-75
2023/08/24 00:03:13;;;;;;;7.68;2.88;;;18.20;99.90;;;;;;5015427;28;38126;-74
2023/08/24 00:05:40;;;;;;;5.68;2.63;;;18.20;99.90;;;;;;5000117;28;38558;-74
2023/08/24 00:08:11;;;;;;;4.60;2.35;;;18.20;99.90;;;;;;5013605;28;37521;-74
2023/08/24 00:10:37;;;;;;;6.05;2.63;;;18.30;99.90;;;;;;4992626;28;37704;-74
2023/08/24 00:13:04;;;;;;;5.68;3.53;;;18.30;99.90;;;;;;4993331;28;39078;-74
2023/08/24 00:15:30;;;;;;;7.03;3.00;;;18.20;99.90;;;;;;5000906;28;38255;-75
2023/08/24 00:17:57;;;;;;;7.40;3.60;;;18.30;99.90;;;;;;5001979;28;37048;-75
2023/08/24 00:20:23;;;;;;;8.65;3.58;;;18.20;99.90;;;;;;4996419;28;37734;-74
2023/08/24 00:22:49;;;;;;;6.65;3.05;;;18.20;99.90;;;;;;4994588;28;38520;-74
2023/08/24 00:25:15;;;;;;;6.82;3.55;;;18.20;99.90;;;;;;5003727;28;37336;-74
2023/08/24 00:27:41;;;;;;;6.88;3.83;;;18.10;99.90;;;;;;4998515;28;38009;-75
2023/08/24 00:30:08;;;;;;;6.85;3.30;;;18.10;99.90;;;;;;5002876;28;39675;-74
2023/08/24 00:32:35;;;;;;;6.90;3.83;;;18.10;99.90;;;;;;4995993;28;37967;-75
2023/08/24 00:35:10;;;;;;;4.10;2.60;;;18.10;99.90;;;;;;5002851;28;39428;-74
2023/08/24 00:37:36;;;;;;;5.55;3.63;;;18.00;99.90;;;;;;5000709;28;47650;-74
2023/08/24 00:40:09;;;;;;;8.90;4.07;;;18.00;99.90;;;;;;4996822;28;38740;-75
2023/08/24 00:42:40;;;;;;;6.20;3.28;;;18.00;99.90;;;;;;4994965;28;47121;-75
2023/08/24 00:45:09;;;;;;;6.82;3.63;;;18.00;99.90;;;;;;5000122;28;37334;-74
2023/08/24 00:47:40;;;;;;;7.10;3.83;;;18.00;99.90;;;;;;4997674;28;37118;-74
2023/08/24 00:50:09;;;;;;;5.05;3.65;;;18.00;99.90;;;;;;4997935;28;37617;-74
2023/08/24 00:52:41;;;;;;;7.53;4.03;;;18.00;99.90;;;;;;5001481;28;38322;-75
2023/08/24 00:55:09;;;;;;;7.15;3.55;;;18.00;99.90;;;;;;4997979;28;40462;-75
2023/08/24 00:57:41;;;;;;;6.72;3.95;;;18.00;99.90;;;;;;5007800;28;35856;-74
2023/08/24 01:00:10;;;;;;;6.50;4.20;;;18.10;99.90;;;;;;5004324;28;38692;-74
2023/08/24 01:02:37;;;;;;;4.97;3.70;;;18.10;99.90;;;;;;5325215;22;40347;-73
2023/08/24 01:05:07;;;;;;;8.75;4.53;;;18.10;99.90;;;;;;4976442;28;37723;-73
2023/08/24 01:07:36;;;;;;;6.00;3.70;;;18.10;99.90;;;;;;4975892;28;48255;-73
2023/08/24 01:10:04;;;;;;;6.55;4.57;;;18.10;99.90;;;;;;4982543;28;39010;-74
2023/08/24 01:12:48;;;;;;;7.53;3.95;;;18.20;99.90;;;;;;4980892;28;38930;-73
2023/08/24 01:15:23;;;;;;;8.45;3.92;;;18.20;99.90;;;;;;4978115;28;38752;-73
2023/08/24 01:17:52;;;;;;;5.13;3.58;;;18.20;99.90;;;;;;4974746;28;37126;-73
2023/08/24 01:20:19;;;;;;;5.30;3.45;;;18.20;99.90;;;;;;4976960;28;38746;-73
2023/08/24 01:23:07;;;;;;;8.15;4.32;;;18.20;99.90;;;;;;4975107;28;38125;-73
2023/08/24 01:25:52;;;;;;;6.97;4.60;;;18.20;99.90;;;;;;4978512;28;47122;-73
2023/08/24 01:28:21;;;;;;;10.88;4.70;;;18.30;99.90;;;;;;4976967;28;36446;-72
2023/08/24 01:30:47;;;;;;;8.52;4.57;;;18.30;99.90;;;;;;4971848;28;39328;-73
2023/08/24 01:33:14;;;;;;;11.43;4.45;;;18.30;99.90;;;;;;4964356;28;38984;-73
2023/08/24 01:35:41;;;;;;;4.93;3.95;;;18.30;99.90;;;;;;4964983;28;37635;-73
2023/08/24 01:38:07;;;;;;;4.78;3.80;;;18.30;99.90;;;;;;4968921;28;36348;-73
2023/08/24 01:40:45;;;;;;;7.15;4.07;;;18.30;99.90;;;;;;4969733;28;37533;-73
2023/08/24 01:43:14;;;;;;;5.90;3.90;;;18.40;99.90;;;;;;4966428;28;37365;-73
2023/08/24 01:45:42;;;;;;;7.38;3.72;;;18.30;99.90;;;;;;4969979;28;38009;-73
2023/08/24 01:48:10;;;;;;;7.82;3.70;;;18.30;99.90;;;;;;4967163;28;36064;-72
2023/08/24 01:50:36;;;;;;;7.75;4.60;;;18.30;99.90;;;;;;4968423;28;38931;-72
2023/08/24 01:53:03;;;;;;;7.65;3.78;;;18.30;99.90;;;;;;4972785;28;37627;-73
2023/08/24 01:55:30;;;;;;;8.93;4.53;;;18.30;99.90;;;;;;4971501;28;38269;-73
2023/08/24 01:57:56;;;;;;;8.52;5.22;;;18.30;99.90;;;;;;4984640;28;38254;-72
2023/08/24 02:00:23;;;;;;;8.40;5.25;;;18.30;99.90;;;;;;4975832;28;37527;-72
2023/08/24 02:02:49;;;;;;;9.73;5.70;;;18.10;99.90;;;;;;4965964;28;41073;-73
2023/08/24 02:05:15;;;;;;;7.72;6.05;;;18.00;99.90;;;;;;4962520;28;37319;-73
2023/08/24 02:07:41;;;;;;;11.00;5.85;;;18.00;99.90;;;;;;4967773;28;34478;-73
2023/08/24 02:10:08;;;;;;;9.40;6.95;;;18.00;99.90;;;;;;4962740;28;39565;-72
2023/08/24 02:12:34;;;;;;;14.40;6.88;;;18.00;99.90;;;;;;4958460;28;39696;-73
2023/08/24 02:15:00;;;;;;;7.93;5.78;;;17.90;99.90;;;;;;4974787;28;38316;-73
2023/08/24 02:17:26;;;;;;;8.05;5.43;;;17.90;99.90;;;;;;4967976;28;36994;-73
2023/08/24 02:19:53;;;;;;;12.68;7.13;;;17.90;99.90;;;;;;4970889;28;38963;-73
2023/08/24 02:22:19;;;;;;;8.00;5.95;;;17.90;99.90;;;;;;4970938;28;38145;-72
2023/08/24 02:24:46;;;;;;;11.32;6.95;;;17.90;99.90;;;;;;4974583;28;38030;-73
2023/08/24 02:27:12;;;;;;;10.10;7.40;;;17.90;99.90;;;;;;4972188;28;37974;-73
2023/08/24 02:29:39;;;;;;;8.43;6.13;;;17.80;99.90;;;;;;4969578;28;38554;-75
2023/08/24 02:32:05;;;;;;;7.80;6.55;;;17.80;99.90;;;;;;4968973;28;37310;-73
2023/08/24 02:34:31;;;;;;;11.23;7.35;;;17.80;99.90;;;;;;4963985;28;39522;-73
2023/08/24 02:36:57;;;;;;;12.23;6.47;;;17.80;99.90;;;;;;4964204;28;35791;-73
2023/08/24 02:39:24;;;;;;;10.18;7.43;;;17.80;99.90;;;;;;4964193;28;36295;-73
2023/08/24 02:41:50;;;;;;;12.95;7.60;;;17.80;99.90;;;;;;4965912;28;37668;-73
2023/08/24 02:44:16;;;;;;;11.60;6.90;;;17.80;99.90;;;;;;4963833;28;37141;-72
2023/08/24 02:46:48;;;;;;;10.68;6.82;;;17.80;99.90;;;;;;4965244;28;34795;-73
2023/08/24 02:49:14;;;;;;;;;;;17.90;99.90;;;;;;4966351;28;39661;-73
2023/08/24 02:51:40;;;;;;;10.70;6.60;;;17.90;99.90;;;;;;4965611;28;38783;-73
2023/08/24 02:54:06;;;;;;;8.77;6.68;;;17.90;99.90;;;;;;4962777;28;38052;-73
2023/08/24 02:56:33;;;;;;;9.60;6.20;;;17.80;99.90;;;;;;4962614;28;34996;-73
2023/08/24 02:58:59;;;;;;;12.30;7.25;;;17.80;99.90;;;;;;4967387;28;38608;-73
2023/08/24 03:01:26;;;;;;;10.23;7.13;;;17.80;99.90;;;;;;4962448;28;38888;-73
2023/08/24 03:03:52;;;;;;;9.10;6.95;;;17.80;99.90;;;;;;4968296;28;37882;-73
2023/08/24 03:06:18;;;;;;;7.97;6.30;;;17.80;99.90;;;;;;4961961;28;35810;-72
2023/08/24 03:08:44;;;;;;;8.30;6.45;;;17.80;99.90;;;;;;4964793;28;37727;-73
2023/08/24 03:11:10;;;;;;;10.80;7.28;;;17.80;99.90;;;;;;4965177;28;40829;-73
2023/08/24 03:13:40;;;;;;;9.10;7.15;;;17.80;99.90;;;;;;4964704;28;38750;-73
2023/08/24 03:16:09;;;;;;;9.73;7.15;;;17.80;99.90;;;;;;4965838;28;37880;-73
2023/08/24 03:18:35;;;;;;;9.63;6.95;;;17.80;99.90;;;;;;4968824;28;38165;-73
2023/08/24 03:21:01;;;;;;;14.18;7.22;;;17.80;99.90;;;;;;4967351;28;38425;-75
2023/08/24 03:23:27;;;;;;;7.80;6.15;;;17.80;99.90;;;;;;4963905;28;46891;-72
2023/08/24 03:25:56;;;;;;;8.10;6.72;;;17.80;99.90;;;;;;4975634;28;36733;-72
2023/08/24 03:28:22;;;;;;;10.93;7.10;;;17.80;99.90;;;;;;4967961;28;38723;-72
2023/08/24 03:30:51;;;;;;;7.10;6.40;;;17.80;99.90;;;;;;4968866;28;37761;-73
2023/08/24 03:33:19;;;;;;;8.88;7.90;;;17.80;99.90;;;;;;4964834;28;37819;-73
2023/08/24 03:35:45;;;;;;;8.88;7.00;;;17.90;99.90;;;;;;4997849;28;36905;-74
2023/08/24 03:38:11;;;;;;;10.80;7.13;;;17.90;99.90;;;;;;4965035;28;38981;-73
2023/08/24 03:40:37;;;;;;;10.63;6.32;;;17.80;99.90;;;;;;4966065;28;37900;-73
2023/08/24 03:43:04;;;;;;;9.65;7.13;;;17.90;99.90;;;;;;4966107;28;38952;-73
2023/08/24 03:45:30;;;;;;;9.88;6.40;;;17.80;99.90;;;;;;4965466;28;36657;-73
2023/08/24 03:47:56;;;;;;;12.68;7.45;;;17.80;99.90;;;;;;4975188;28;37877;-73
2023/08/24 03:50:22;;;;;;;11.55;8.10;;;17.80;99.90;;;;;;4978009;28;39766;-73
2023/08/24 03:52:50;;;;;;;8.43;6.80;;;17.80;99.90;;;;;;4977000;28;37104;-73
2023/08/24 03:55:17;;;;;;;11.73;7.85;;;17.80;99.90;;;;;;4978565;28;37105;-73
2023/08/24 03:57:43;;;;;;;9.85;6.93;;;17.80;99.90;;;;;;4967678;28;37457;-73
2023/08/24 04:00:14;;;;;;;11.75;7.80;;;17.80;99.90;;;;;;4975095;28;37985;-72
2023/08/24 04:02:41;;;;;;;10.60;6.82;;;17.70;99.90;;;;;;4977028;28;38254;-74
2023/08/24 04:05:07;;;;;;;8.73;6.82;;;17.70;99.90;;;;;;4976438;28;36112;-73
2023/08/24 04:07:36;;;;;;;9.40;6.95;;;17.70;99.90;;;;;;4975617;28;40094;-73
2023/08/24 04:10:04;;;;;;;8.95;7.57;;;17.70;99.90;;;;;;4978532;28;39033;-73
2023/08/24 04:12:31;;;;;;;8.65;6.93;;;17.70;99.90;;;;;;4972165;28;37405;-73
2023/08/24 04:14:57;;;;;;;10.25;7.63;;;17.70;99.90;;;;;;4978232;28;36097;-73
2023/08/24 04:17:24;;;;;;;10.10;8.10;;;17.70;99.90;;;;;;4973750;28;39023;-73
2023/08/24 04:19:50;;;;;;;8.88;7.05;;;17.70;99.90;;;;;;4981825;28;39152;-73
2023/08/24 04:22:16;;;;;;;9.40;6.50;;;17.70;99.90;;;;;;4979174;28;38695;-73
2023/08/24 04:24:43;;;;;;;10.75;7.22;;;17.70;99.90;;;;;;4984183;28;37656;-74
2023/08/24 04:27:09;;;;;;;10.52;7.78;;;17.70;99.90;;;;;;4974901;28;40010;-73
2023/08/24 04:29:35;;;;;;;9.82;7.30;;;17.70;99.90;;;;;;4980216;28;38095;-73
2023/08/24 04:32:01;;;;;;;13.32;8.40;;;17.80;99.90;;;;;;4970321;28;37749;-74
2023/08/24 04:34:27;;;;;;;13.82;7.90;;;17.80;99.90;;;;;;4979224;28;48392;-73
2023/08/24 04:36:54;;;;;;;9.55;7.45;;;17.80;99.90;;;;;;4982342;28;38600;-74
2023/08/24 04:39:20;;;;;;;13.40;8.88;;;17.80;99.90;;;;;;4980251;28;38415;-74
2023/08/24 04:41:46;;;;;;;11.73;7.82;;;17.80;99.90;;;;;;4974134;28;37550;-73
2023/08/24 04:44:12;;;;;;;12.00;8.30;;;17.80;99.90;;;;;;4981714;28;36295;-74
2023/08/24 04:46:39;;;;;;;9.18;7.40;;;17.80;99.90;;;;;;4974479;28;40030;-74
2023/08/24 04:49:05;;;;;;;15.30;8.55;;;17.90;99.90;;;;;;4969447;28;39268;-73
2023/08/24 04:51:31;;;;;;;11.52;8.13;;;17.90;99.90;;;;;;4969798;28;37332;-74
2023/08/24 04:53:57;;;;;;;14.35;8.63;;;17.90;99.90;;;;;;4977125;28;37015;-74
2023/08/24 04:56:23;;;;;;;12.57;9.15;;;17.90;99.90;;;;;;4970605;28;38610;-73
2023/08/24 04:58:54;;;;;;;15.23;9.35;;;18.00;99.90;;;;;;4972743;28;40255;-74
2023/08/24 05:01:20;;;;;;;11.07;9.75;;;18.00;99.90;;;;;;4965485;28;39462;-74
2023/08/24 05:03:49;;;;;;;14.13;9.85;;;18.00;99.90;;;;;;4969293;28;37335;-73
2023/08/24 05:06:15;;;;;;;10.07;8.70;;;18.10;99.90;;;;;;4964884;28;38132;-73
2023/08/24 05:08:41;;;;;;;14.52;9.68;;;18.10;99.90;;;;;;4968660;28;39563;-73
2023/08/24 05:11:17;;;;;;;12.32;9.27;;;18.10;99.90;;;;;;4967488;28;38364;-73
2023/08/24 05:13:43;;;;;;;12.98;10.00;;;18.10;99.90;;;;;;4968077;28;37251;-73
2023/08/24 05:16:10;;;;;;;13.93;10.85;;;18.10;99.90;;;;;;4971473;28;39252;-73
2023/08/24 05:18:36;;;;;;;16.63;11.40;;;18.00;99.90;;;;;;4969048;28;38339;-73
2023/08/24 05:21:03;;;;;;;12.20;10.52;;;18.10;99.90;;;;;;4966168;28;38521;-74
2023/08/24 05:23:31;;;;;;;15.60;12.52;;;18.10;99.90;;;;;;4968831;28;37263;-73
2023/08/24 05:25:58;;;;;;;20.67;12.90;;;18.10;99.90;;;;;;4963882;28;38857;-73
2023/08/24 05:28:25;;;;;;;15.23;11.88;;;18.10;99.90;;;;;;4964986;28;38794;-73
2023/08/24 05:30:52;;;;;;;20.75;13.30;;;18.10;99.90;;;;;;4963976;28;38105;-72
2023/08/24 05:33:20;;;;;;;16.77;11.10;;;18.10;99.90;;;;;;4967706;28;38575;-73
2023/08/24 05:35:46;;;;;;;17.90;13.13;;;18.20;99.90;;;;;;4965743;28;38973;-74
2023/08/24 05:38:13;;;;;;;14.73;11.32;;;18.20;99.90;;;;;;4970142;28;38125;-74
2023/08/24 05:40:42;;;;;;;18.88;13.00;;;18.20;99.90;;;;;;4967358;28;38772;-73
2023/08/24 05:43:11;;;;;;;16.35;13.50;;;18.20;99.90;;;;;;4981810;28;37983;-73
2023/08/24 05:45:39;;;;;;;19.05;14.23;;;18.30;99.90;;;;;;4974897;28;38800;-73
2023/08/24 05:48:06;;;;;;;17.73;14.98;;;18.30;99.90;;;;;;4974656;28;38027;-73
2023/08/24 05:50:32;;;;;;;20.30;14.48;;;18.40;99.90;;;;;;4972413;28;38517;-73
2023/08/24 05:52:58;;;;;;;19.48;15.52;;;18.40;99.90;;;;;;4965854;28;37154;-73
2023/08/24 05:55:24;;;;;;;23.13;17.20;;;18.50;99.90;;;;;;4972571;28;34944;-72
2023/08/24 05:57:51;;;;;;;22.98;16.38;;;18.50;99.90;;;;;;4982090;28;37769;-72
2023/08/24 06:00:17;;;;;;;21.88;16.77;;;18.60;99.90;;;;;;4977228;28;37856;-72
2023/08/24 06:02:43;;;;;;;19.25;14.65;;;18.60;99.90;;;;;;4966198;28;36716;-72
2023/08/24 06:05:11;;;;;;;20.85;16.30;;;18.70;99.90;;;;;;4967687;28;38337;-72
2023/08/24 06:07:37;;;;;;;19.83;14.88;;;18.70;99.90;;;;;;4967955;28;38979;-71
2023/08/24 06:10:03;;;;;;;26.20;16.33;;;18.80;99.90;;;;;;4971568;28;37891;-71
2023/08/24 06:12:30;;;;;;;23.38;16.50;;;18.80;99.90;;;;;;5003211;28;36446;-72
2023/08/24 06:14:56;;;;;;;23.80;16.77;;;18.90;99.90;;;;;;4967197;28;37654;-71
2023/08/24 06:17:22;;;;;;;22.02;14.88;;;19.00;99.90;;;;;;4965679;28;41170;-71
2023/08/24 06:19:48;;;;;;;21.73;16.13;;;19.00;99.90;;;;;;4970976;28;37525;-71
2023/08/24 06:22:14;;;;;;;22.30;16.35;;;19.00;99.90;;;;;;4980793;28;37298;-72
2023/08/24 06:24:40;;;;;;;22.10;16.13;;;19.10;99.90;;;;;;4972693;28;37672;-71
2023/08/24 06:27:06;;;;;;;19.08;14.07;;;19.10;99.90;;;;;;4973259;28;37617;-72
2023/08/24 06:29:32;;;;;;;20.13;15.23;;;19.10;99.90;;;;;;4980310;28;37326;-72
2023/08/24 06:31:58;;;;;;;22.33;15.32;;;19.20;99.90;;;;;;4972218;28;37434;-71
2023/08/24 06:34:25;;;;;;;23.48;15.73;;;19.30;99.90;;;;;;4963127;28;39852;-71
2023/08/24 06:36:53;;;;;;;20.98;13.10;;;19.40;99.90;;;;;;4965342;28;37728;-72
2023/08/24 06:39:19;;;;;;;22.95;15.68;;;19.40;99.90;;;;;;4964943;28;41389;-72
2023/08/24 06:41:45;;;;;;;18.23;13.93;;;19.50;99.90;;;;;;4961718;28;37358;-72
2023/08/24 06:44:11;;;;;;;17.08;15.27;;;19.50;99.90;;;;;;4959137;28;38536;-73
2023/08/24 06:46:37;;;;;;;18.95;14.52;;;19.60;99.90;;;;;;4961830;28;39200;-73
2023/08/24 06:49:03;;;;;;;21.15;14.57;;;19.60;99.90;;;;;;4966133;28;39075;-72
2023/08/24 06:51:30;;;;;;;22.23;15.05;;;19.70;99.90;;;;;;4970482;28;35560;-71
2023/08/24 06:53:56;;;;;;;21.77;15.00;;;19.80;99.90;;;;;;4960556;28;37581;-71
2023/08/24 06:56:22;;;;;;;15.65;12.20;;;19.90;99.90;;;;;;4962021;28;39769;-72
2023/08/24 06:58:48;;;;;;;21.33;15.25;;;19.90;99.90;;;;;;4965261;28;38445;-73
2023/08/24 07:01:15;;;;;;;18.20;14.73;;;20.00;99.90;;;;;;4967797;28;38206;-73
2023/08/24 07:03:41;;;;;;;22.33;15.38;;;20.10;99.90;;;;;;4970323;28;37946;-74
2023/08/24 07:06:08;;;;;;;27.33;15.48;;;20.20;99.90;;;;;;4966039;28;38358;-73
2023/08/24 07:08:35;;;;;;;20.20;14.90;;;20.20;99.90;;;;;;4999735;28;36084;-73
2023/08/24 07:11:02;;;;;;;17.67;14.13;;;20.30;99.90;;;;;;4966356;28;37694;-73
2023/08/24 07:13:28;;;;;;;17.95;13.90;;;20.40;99.90;;;;;;4967066;28;47030;-73
2023/08/24 07:15:55;;;;;;;19.40;14.55;;;20.40;99.90;;;;;;4965790;28;39639;-73
2023/08/24 07:18:21;;;;;;;20.70;14.25;;;20.70;99.90;;;;;;4966303;28;37067;-73
2023/08/24 07:20:48;;;;;;;17.40;13.32;;;20.80;99.90;;;;;;4968958;28;37420;-74
2023/08/24 07:23:14;;;;;;;18.15;14.02;;;21.00;99.90;;;;;;4968244;28;37735;-73
2023/08/24 07:25:41;;;;;;;18.75;13.45;;;21.30;99.90;;;;;;4972739;28;38827;-73
2023/08/24 07:28:08;;;;;;;19.27;13.93;;;21.40;99.90;;;;;;4964308;28;37616;-73
2023/08/24 07:30:35;;;;;;;19.58;14.00;;;21.50;99.90;;;;;;4965551;28;39265;-73
2023/08/24 07:33:05;;;;;;;18.40;12.43;;;21.60;99.90;;;;;;4960760;28;38664;-74
2023/08/24 07:35:32;;;;;;;21.20;13.65;;;21.50;99.90;;;;;;4965131;28;39563;-74
2023/08/24 07:37:58;;;;;;;19.75;13.57;;;21.60;99.90;;;;;;4968214;28;40217;-73
2023/08/24 07:40:25;;;;;;;17.85;12.43;;;21.60;99.90;;;;;;4966637;28;37274;-73
2023/08/24 07:42:54;;;;;;;17.20;11.43;;;21.60;99.90;;;;;;4968729;28;38769;-73
2023/08/24 07:45:21;;;;;;;16.42;11.98;;;21.70;99.90;;;;;;4965849;28;38666;-73
2023/08/24 07:47:49;;;;;;;16.70;10.75;;;21.70;99.90;;;;;;4974147;28;37547;-73
2023/08/24 07:50:16;;;;;;;16.25;12.27;;;21.80;99.90;;;;;;4979081;28;38055;-74
2023/08/24 07:52:42;;;;;;;21.17;12.77;;;21.90;99.90;;;;;;4982289;28;38518;-74
2023/08/24 07:55:09;;;;;;;15.38;12.20;;;21.90;99.90;;;;;;4990105;28;39579;-74
2023/08/24 07:57:37;;;;;;;17.10;11.48;;;21.90;99.90;;;;;;4973215;28;38480;-74
2023/08/24 08:00:04;;;;;;;17.20;11.23;;;22.00;99.90;;;;;;4969998;28;35251;-75
2023/08/24 08:02:32;;;;;;;14.10;11.38;;;22.00;99.90;;;;;;4981745;28;47228;-74
2023/08/24 08:04:59;;;;;;;15.23;12.23;;;22.00;99.90;;;;;;4976099;28;37229;-76
2023/08/24 08:07:26;;;;;;;14.02;11.98;;;22.00;99.90;;;;;;4973045;28;37778;-74
2023/08/24 08:09:52;;;;;;;15.48;10.77;;;22.00;99.90;;;;;;4976034;28;37706;-73
2023/08/24 08:12:18;;;;;;;17.23;11.40;;;22.00;99.90;;;;;;4972147;28;37718;-74
2023/08/24 08:14:45;;;;;;;16.38;11.40;;;22.00;99.90;;;;;;4979135;28;37542;-73
2023/08/24 08:17:11;;;;;;;14.57;11.38;;;22.00;99.90;;;;;;4980290;28;37818;-74
2023/08/24 08:19:37;;;;;;;15.32;12.52;;;22.10;99.90;;;;;;4983502;28;36785;-76
2023/08/24 08:22:04;;;;;;;14.70;11.70;;;22.00;99.90;;;;;;4981484;28;39451;-73
2023/08/24 08:24:30;;;;;;;13.25;11.52;;;22.10;99.90;;;;;;4980583;28;39105;-73
2023/08/24 08:26:57;;;;;;;19.85;13.45;;;22.10;99.90;;;;;;4985007;28;37360;-73
2023/08/24 08:29:23;;;;;;;14.38;11.80;;;22.00;99.90;;;;;;4981185;28;36114;-75
2023/08/24 08:31:49;;;;;;;14.93;11.52;;;22.10;99.90;;;;;;4973895;28;38565;-71
2023/08/24 08:34:15;;;;;;;15.00;11.40;;;22.00;99.90;;;;;;4978546;28;39046;-73
2023/08/24 08:36:41;;;;;;;14.48;11.13;;;22.10;99.90;;;;;;4981065;28;37460;-73
2023/08/24 08:39:08;;;;;;;20.50;13.40;;;22.10;99.90;;;;;;4985224;28;38304;-74
2023/08/24 08:41:39;;;;;;;17.45;12.90;;;22.10;99.90;;;;;;4976571;28;39389;-75
2023/08/24 08:44:06;;;;;;;13.95;11.30;;;22.10;99.90;;;;;;4978487;28;38342;-74
2023/08/24 08:46:33;;;;;;;17.30;12.48;;;22.10;99.90;;;;;;4978433;28;38242;-73
2023/08/24 08:49:00;;;;;;;19.95;12.88;;;22.20;99.90;;;;;;4977786;28;36517;-76
2023/08/24 08:51:30;;;;;;;16.50;11.88;;;22.30;99.90;;;;;;4981799;28;37687;-73
2023/08/24 08:53:57;;;;;;;19.88;13.20;;;22.30;99.90;;;;;;4981941;28;37613;-73
2023/08/24 08:56:23;;;;;;;15.23;10.25;;;22.50;99.90;;;;;;4977180;28;38544;-73
2023/08/24 08:58:50;;;;;;;20.80;12.48;;;22.60;99.90;;;;;;4979459;28;37501;-73
2023/08/24 09:01:17;;;;;;;16.02;11.82;;;22.60;99.90;;;;;;4973381;28;38904;-73
2023/08/24 09:03:44;;;;;;;18.75;12.32;;;22.70;99.90;;;;;;4978920;28;38063;-74
2023/08/24 09:06:10;;;;;;;12.93;9.88;;;22.80;99.90;;;;;;4978666;28;38483;-73
2023/08/24 09:08:37;;;;;;;12.90;9.43;;;22.90;99.90;;;;;;4970469;28;36778;-74
2023/08/24 09:11:04;;;;;;;15.27;11.57;;;22.80;99.90;;;;;;4971127;28;39519;-76
2023/08/24 09:13:32;;;;;;;17.98;12.70;;;22.80;99.90;;;;;;4972315;28;38497;-76
2023/08/24 09:16:08;;;;;;;19.40;12.85;;;22.80;99.90;;;;;;4974897;28;37500;-76
2023/08/24 09:18:39;;;;;;;15.00;11.82;;;22.80;99.90;;;;;;4969802;28;48486;-76
2023/08/24 09:21:09;;;;;;;18.10;13.07;;;22.70;99.90;;;;;;4976879;28;39620;-76
2023/08/24 09:23:35;;;;;;;16.20;12.27;;;22.80;99.90;;;;;;4980269;28;37968;-76
2023/08/24 09:26:02;;;;;;;14.40;11.10;;;22.90;99.90;;;;;;4985851;28;37187;-76
2023/08/24 09:28:28;;;;;;;15.32;11.60;;;23.00;99.90;;;;;;4985497;28;38800;-75
2023/08/24 09:30:54;;;;;;;17.98;11.73;;;23.00;99.90;;;;;;4981620;28;37731;-76
2023/08/24 09:33:25;;;;;;;14.50;11.10;;;23.00;99.90;;;;;;4980572;28;38501;-75
2023/08/24 09:36:01;;;;;;;12.52;10.23;;;23.00;99.90;;;;;;4979162;28;37513;-75
2023/08/24 09:38:28;;;;;;;13.38;11.07;;;23.00;99.90;;;;;;4980553;28;48283;-74
2023/08/24 09:40:55;;;;;;;16.92;12.68;;;23.00;99.90;;;;;;4973947;28;39426;-74
2023/08/24 09:43:22;;;;;;;17.42;12.77;;;22.90;99.90;;;;;;4982436;28;39838;-74
2023/08/24 09:45:50;;;;;;;14.35;12.50;;;22.80;99.90;;;;;;4982018;28;38647;-74
2023/08/24 09:48:17;;;;;;;19.02;13.95;;;22.70;99.90;;;;;;4985674;28;37654;-74
2023/08/24 09:50:45;;;;;;;13.15;11.75;;;22.60;99.90;;;;;;4986823;28;39180;-75
2023/08/24 09:53:23;;;;;;;12.18;10.80;;;22.50;99.90;;;;;;4976407;28;38804;-75
2023/08/24 09:56:02;;;;;;;16.23;11.32;;;22.40;99.90;;;;;;4976509;28;38250;-74
2023/08/24 09:58:29;;;;;;;16.00;13.48;;;22.30;99.90;;;;;;4981822;28;47526;-74
2023/08/24 10:00:56;;;;;;;17.02;13.30;;;22.20;99.90;;;;;;4981622;28;38581;-74
2023/08/24 10:03:26;;;;;;;15.65;12.80;;;22.20;99.90;;;;;;4977230;28;40001;-74
2023/08/24 10:05:54;;;;;;;16.73;12.60;;;22.20;99.90;;;;;;4977471;28;39325;-75
2023/08/24 10:08:24;;;;;;;19.80;13.15;;;22.20;99.90;;;;;;4979483;28;36690;-75
2023/08/24 10:10:55;;;;;;;18.75;12.55;;;22.20;99.90;;;;;;4978052;28;37724;-74
2023/08/24 10:13:29;;;;;;;15.82;12.48;;;22.30;99.90;;;;;;4975733;28;38818;-74
2023/08/24 10:15:57;;;;;;;14.93;12.10;;;22.30;99.90;;;;;;4979774;28;37550;-74
2023/08/24 10:18:23;;;;;;;19.13;14.13;;;22.30;99.90;;;;;;4979246;28;36409;-74
2023/08/24 10:20:51;;;;;;;15.77;13.85;;;22.40;99.90;;;;;;4982731;28;39508;-74
2023/08/24 10:23:19;;;;;;;18.02;14.98;;;22.50;99.90;;;;;;4978688;28;37912;-74
2023/08/24 10:25:46;;;;;;;18.40;15.07;;;22.50;99.90;;;;;;4972399;28;39544;-74
2023/08/24 10:28:16;;;;;;;21.52;15.32;;;22.50;99.90;;;;;;4981476;28;37400;-74
2023/08/24 10:30:44;;;;;;;24.17;16.60;;;22.50;99.90;;;;;;4980018;28;38001;-74
2023/08/24 10:33:13;;;;;;;20.55;16.58;;;22.60;99.90;;;;;;4968610;28;39424;-74
2023/08/24 10:35:40;;;;;;;21.85;17.33;;;22.60;99.90;;;;;;4983468;28;38426;-74
2023/08/24 10:38:06;;;;;;;21.23;15.82;;;22.80;99.90;;;;;;4987898;28;37507;-74
2023/08/24 10:40:35;;;;;;;19.15;15.70;;;22.80;99.90;;;;;;4975817;28;37597;-75
2023/08/24 10:43:05;;;;;;;19.88;15.30;;;22.90;99.90;;;;;;4988179;28;38232;-74
2023/08/24 10:45:53;;;;;;;25.23;16.50;;;22.90;99.90;;;;;;4970918;28;47694;-74
2023/08/24 10:48:20;;;;;;;20.15;15.38;;;23.10;99.90;;;;;;4976929;28;37792;-74
2023/08/24 10:51:19;;;;;;;24.63;16.55;;;23.20;99.90;;;;;;4974775;28;38773;-73
2023/08/24 10:53:46;;;;;;;24.83;15.77;;;23.10;99.90;;;;;;4992593;28;47269;-74
2023/08/24 10:56:17;;;;;;;19.90;15.20;;;23.00;99.90;;;;;;4975051;28;39372;-75
2023/08/24 10:58:45;;;;;;;21.60;16.13;;;23.10;99.90;;;;;;4980932;28;38218;-74
2023/08/24 11:01:18;;;;;;;16.23;13.55;;;23.00;99.90;;;;;;4976719;28;37819;-74
2023/08/24 11:03:54;;;;;;;24.08;16.25;;;23.10;99.90;;;;;;4972747;28;37547;-75
2023/08/24 11:06:25;;;;;;;17.67;14.60;;;23.10;99.90;;;;;;4968705;28;37645;-74
2023/08/24 11:09:06;;;;;;;15.13;13.13;;;23.20;99.90;;;;;;4987538;28;37293;-74
2023/08/24 11:11:33;;;;;;;18.52;13.75;;;23.40;99.90;;;;;;4976224;28;48321;-74
2023/08/24 11:14:19;;;;;;;17.00;12.32;;;23.50;99.90;;;;;;4978599;28;37533;-74
2023/08/24 11:16:49;;;;;;;18.50;14.00;;;23.70;99.90;;;;;;4975771;28;48838;-74
2023/08/24 11:19:15;;;;;;;14.77;11.45;;;23.90;99.90;;;;;;4977620;28;37097;-74
2023/08/24 11:21:45;;;;;;;16.60;12.32;;;24.00;99.90;;;;;;4977183;28;39378;-74
2023/08/24 11:24:16;;;;;;;18.75;12.73;;;24.10;99.90;;;;;;4978459;28;39946;-74
2023/08/24 11:26:49;;;;;;;14.25;12.10;;;24.00;99.90;;;;;;4972274;28;37737;-74
2023/08/24 11:29:18;;;;;;;15.98;13.18;;;24.20;99.90;;;;;;4973253;28;36333;-74
2023/08/24 11:31:44;;;;;;;17.08;12.75;;;24.40;99.90;;;;;;4984372;28;37537;-74
2023/08/24 11:34:14;;;;;;;11.68;10.48;;;24.60;99.90;;;;;;4975403;28;38887;-74
2023/08/24 11:36:46;;;;;;;19.15;13.23;;;24.60;99.90;;;;;;4971917;28;37320;-74
2023/08/24 11:39:19;;;;;;;13.07;11.13;;;24.80;99.90;;;;;;4981321;28;36411;-72
2023/08/24 11:42:05;;;;;;;14.40;10.15;;;24.90;99.90;;;;;;4971299;28;37892;-72
2023/08/24 11:44:48;;;;;;;16.67;12.70;;;24.90;99.90;;;;;;4974708;28;48011;-72
2023/08/24 11:47:15;;;;;;;16.52;12.57;;;25.00;99.90;;;;;;4975644;28;37751;-73
2023/08/24 11:49:42;;;;;;;15.45;11.50;;;25.00;99.90;;;;;;4979846;28;37666;-73
2023/08/24 11:52:09;;;;;;;14.23;10.63;;;25.10;99.90;;;;;;4982932;28;37984;-72
2023/08/24 11:54:38;;;;;;;14.75;11.48;;;25.00;99.90;;;;;;4967482;28;39816;-72
2023/08/24 11:57:08;;;;;;;16.50;12.57;;;25.30;99.90;;;;;;4985295;28;38373;-72
2023/08/24 11:59:35;;;;;;;14.80;10.60;;;25.40;99.90;;;;;;4979546;28;36618;-72
2023/08/24 12:02:03;;;;;;;16.17;10.63;;;25.40;99.90;;;;;;4982211;28;37584;-72
2023/08/24 12:04:39;;;;;;;14.07;10.02;;;25.40;99.90;;;;;;4977149;28;37879;-72
2023/08/24 12:07:12;;;;;;;17.15;10.95;;;25.50;99.90;;;;;;4978797;28;20117;-71
2023/08/24 12:09:42;;;;;;;15.15;10.98;;;25.50;99.90;;;;;;4969511;28;39282;-72
2023/08/24 12:12:15;;;;;;;12.80;8.63;;;25.70;99.90;;;;;;4975019;28;38840;-74
2023/08/24 12:14:42;;;;;;;13.15;9.85;;;25.80;99.90;;;;;;4983655;28;39048;-75
2023/08/24 12:17:13;;;;;;;15.57;11.13;;;25.90;99.90;;;;;;4974189;28;38960;-75
2023/08/24 12:19:44;;;;;;;14.07;9.25;;;25.90;99.90;;;;;;4971794;28;36618;-74
2023/08/24 12:22:16;;;;;;;16.55;10.82;;;26.00;99.90;;;;;;4986032;28;38386;-74
2023/08/24 12:24:46;;;;;;;15.57;10.95;;;25.90;97.60;;;;;;4985874;28;39557;-74
2023/08/24 12:27:28;;;;;;;14.05;10.48;;;25.80;90.10;;;;;;4977283;28;38908;-74
2023/08/24 12:29:54;;;;;;;16.75;10.10;;;25.90;99.90;;;;;;4978206;28;36541;-73
2023/08/24 12:32:23;;;;;;;12.48;10.73;;;26.10;99.90;;;;;;4979169;28;38087;-74
2023/08/24 12:34:51;;;;;;;11.32;10.00;;;25.90;92.10;;;;;;4977055;28;40422;-74
2023/08/24 12:37:17;;;;;;;14.32;10.93;;;25.70;99.90;;;;;;4978187;28;37171;-74